Time;durP1;ratioP1;P1;durP2;ratioP2;P2;SDS_P1;SDS_P2;PMS_P1;PMS_P2;Temp;Humidity;BMP_temperature;BMP_pressure;BME280_temperature;BME280_humidity;BME280_pressure;Samples;Min_cycle;Max_cycle;Signal;HPM_P1;HPM_P2
2022/03/10 00:00:50;;;;;;;4.05;2.35;;;20.20;65.60;;;;;;7839935;28;20188;-47
2022/03/10 00:04:37;;;;;;;4.35;2.50;;;20.20;65.60;;;;;;7839931;28;20699;-47
2022/03/10 00:08:22;;;;;;;4.65;2.63;;;20.10;65.60;;;;;;7839887;28;20174;-50
2022/03/10 00:12:07;;;;;;;3.22;2.60;;;20.10;65.50;;;;;;7839567;28;20296;-46
2022/03/10 00:15:53;;;;;;;4.78;2.60;;;20.10;65.50;;;;;;7840072;28;20532;-47
2022/03/10 00:19:38;;;;;;;4.70;2.80;;;20.00;65.40;;;;;;7839644;28;20506;-47
2022/03/10 00:23:24;;;;;;;3.88;2.40;;;20.00;65.40;;;;;;7839279;28;20236;-49
2022/03/10 00:27:09;;;;;;;3.80;2.70;;;20.00;65.40;;;;;;7839505;28;20260;-47
2022/03/10 00:30:55;;;;;;;3.30;2.47;;;19.90;65.30;;;;;;7839148;28;20209;-48
2022/03/10 00:34:40;;;;;;;3.33;2.38;;;19.90;65.30;;;;;;7839265;28;20185;-46
2022/03/10 00:38:26;;;;;;;3.55;2.67;;;19.90;65.30;;;;;;7839141;28;20661;-46
2022/03/10 00:42:11;;;;;;;6.13;3.05;;;19.80;65.20;;;;;;7838673;28;20205;-47
2022/03/10 00:45:57;;;;;;;3.25;2.70;;;19.80;65.20;;;;;;7839374;28;20185;-48
2022/03/10 00:49:42;;;;;;;5.15;2.70;;;19.80;65.20;;;;;;7838619;28;20170;-47
2022/03/10 00:53:28;;;;;;;4.28;2.65;;;19.80;65.20;;;;;;7838540;28;20216;-48
2022/03/10 00:57:13;;;;;;;4.30;2.90;;;19.80;65.10;;;;;;7838717;28;20186;-47
2022/03/10 01:00:59;;;;;;;3.30;2.88;;;19.70;65.90;;;;;;7838151;28;20193;-47
2022/03/10 01:04:44;;;;;;;3.75;3.13;;;19.70;65.00;;;;;;7838377;28;20202;-46
2022/03/10 01:08:30;;;;;;;3.63;2.63;;;19.70;65.00;;;;;;7838362;28;20177;-46
2022/03/10 01:12:15;;;;;;;4.13;2.83;;;19.70;65.00;;;;;;7837429;28;20213;-47
2022/03/10 01:16:01;;;;;;;3.63;3.05;;;19.60;65.10;;;;;;7838186;28;20188;-47
2022/03/10 01:19:47;;;;;;;4.07;2.72;;;19.60;65.00;;;;;;7837950;28;20170;-47
2022/03/10 01:23:33;;;;;;;4.50;2.72;;;19.60;65.00;;;;;;7837984;28;20204;-48
2022/03/10 01:27:18;;;;;;;3.95;3.13;;;19.60;64.90;;;;;;7838059;28;20631;-49
2022/03/10 01:31:04;;;;;;;3.38;2.70;;;19.60;64.90;;;;;;7837566;28;20209;-46
2022/03/10 01:34:49;;;;;;;4.35;3.05;;;19.60;64.80;;;;;;7838047;28;20236;-47
2022/03/10 01:38:39;;;;;;;4.25;3.20;;;19.60;64.80;;;;;;7844116;28;20227;-47
2022/03/10 01:42:25;;;;;;;3.28;2.60;;;19.50;64.80;;;;;;7844234;28;20197;-47
2022/03/10 01:46:10;;;;;;;4.05;2.90;;;19.50;64.80;;;;;;7844266;28;20178;-46
2022/03/10 01:49:56;;;;;;;4.57;2.83;;;19.50;64.80;;;;;;7844036;28;20181;-46
2022/03/10 01:53:42;;;;;;;4.72;2.60;;;19.50;64.80;;;;;;7844049;28;20214;-49
2022/03/10 01:57:27;;;;;;;4.82;3.00;;;19.40;64.70;;;;;;7844313;28;20181;-47
2022/03/10 02:01:15;;;;;;;5.35;3.15;;;19.40;64.60;;;;;;7843797;28;20232;-48
2022/03/10 02:05:00;;;;;;;3.90;2.80;;;19.40;65.40;;;;;;7844181;28;20193;-46
2022/03/10 02:12:52;;;;;;;5.40;3.00;;;19.40;64.60;;;;;;7843555;28;20205;-46
2022/03/10 02:20:44;;;;;;;4.45;3.00;;;19.40;64.40;;;;;;7842997;28;20265;-47
2022/03/10 02:24:30;;;;;;;3.30;2.80;;;19.40;64.40;;;;;;7842988;28;20197;-48
2022/03/10 02:28:16;;;;;;;6.18;2.88;;;19.30;64.50;;;;;;7842946;28;20182;-47
2022/03/10 02:32:02;;;;;;;3.55;2.97;;;19.30;64.40;;;;;;7842392;28;20213;-47
2022/03/10 02:35:48;;;;;;;3.72;2.92;;;19.30;64.40;;;;;;7842640;28;20655;-47
2022/03/10 02:39:34;;;;;;;5.00;3.10;;;19.30;64.40;;;;;;7842274;28;20546;-47
2022/03/10 02:43:20;;;;;;;4.88;2.85;;;19.30;64.40;;;;;;7842486;28;20209;-47
2022/03/10 02:47:05;;;;;;;4.00;2.95;;;19.30;64.40;;;;;;7842186;28;20178;-46
2022/03/10 02:50:51;;;;;;;5.68;3.13;;;19.30;64.40;;;;;;7841910;28;20304;-47
2022/03/10 02:54:36;;;;;;;4.15;2.72;;;19.20;64.30;;;;;;7842054;28;20323;-47
2022/03/10 02:58:22;;;;;;;4.68;3.28;;;19.20;64.10;;;;;;7842089;28;20174;-47
2022/03/10 03:02:07;;;;;;;3.10;2.70;;;19.20;64.10;;;;;;7841438;28;20567;-47
2022/03/10 03:05:53;;;;;;;3.90;3.00;;;19.20;64.10;;;;;;7841930;28;20209;-47
2022/03/10 03:09:38;;;;;;;5.40;3.00;;;19.20;64.20;;;;;;7841474;28;20196;-49
2022/03/10 03:13:24;;;;;;;7.43;2.97;;;19.10;64.00;;;;;;7841465;28;20251;-47
2022/03/10 03:17:09;;;;;;;4.63;2.90;;;19.10;64.90;;;;;;7841546;28;20204;-47
2022/03/10 03:20:55;;;;;;;5.35;3.10;;;19.10;64.10;;;;;;7841086;28;20257;-47
2022/03/10 03:24:40;;;;;;;9.93;3.75;;;19.10;64.10;;;;;;7841362;28;20251;-48
2022/03/10 03:28:26;;;;;;;4.53;3.20;;;19.10;64.10;;;;;;7841271;28;20591;-50
2022/03/10 03:32:11;;;;;;;5.90;3.35;;;19.00;64.10;;;;;;7840658;28;20205;-49
2022/03/10 03:35:57;;;;;;;6.50;2.88;;;19.00;64.00;;;;;;7840919;28;20205;-47
2022/03/10 03:39:43;;;;;;;4.00;2.88;;;19.00;64.10;;;;;;7840765;28;20232;-46
2022/03/10 03:43:28;;;;;;;3.53;2.92;;;19.00;64.10;;;;;;7841047;28;20194;-46
2022/03/10 03:47:14;;;;;;;7.82;3.15;;;18.90;64.00;;;;;;7840762;28;20174;-48
2022/03/10 03:50:59;;;;;;;3.55;3.00;;;19.00;64.00;;;;;;7840289;28;20652;-46
2022/03/10 03:54:45;;;;;;;3.72;3.03;;;18.90;63.90;;;;;;7840567;28;20628;-46
2022/03/10 03:58:30;;;;;;;5.97;3.47;;;18.90;64.00;;;;;;7839808;28;20174;-47
2022/03/10 04:02:16;;;;;;;7.53;3.20;;;18.90;64.00;;;;;;7839722;28;20212;-47
2022/03/10 04:06:01;;;;;;;4.93;3.30;;;18.80;63.80;;;;;;7840095;28;20216;-47
2022/03/10 04:09:46;;;;;;;4.28;2.83;;;18.90;63.80;;;;;;7839647;28;20190;-49
2022/03/10 04:13:32;;;;;;;3.58;3.13;;;18.80;63.90;;;;;;7839685;28;20249;-47
2022/03/10 04:17:17;;;;;;;4.80;3.42;;;18.80;64.00;;;;;;7839823;28;20216;-46
2022/03/10 04:21:03;;;;;;;4.57;3.15;;;18.80;63.90;;;;;;7839327;28;20182;-49
2022/03/10 04:24:48;;;;;;;5.35;3.70;;;18.80;63.70;;;;;;7839617;28;20267;-46
2022/03/10 04:28:34;;;;;;;6.55;3.17;;;18.80;63.80;;;;;;7839397;28;20189;-47
2022/03/10 04:32:19;;;;;;;5.57;3.20;;;18.70;63.90;;;;;;7838621;28;20201;-48
2022/03/10 04:36:05;;;;;;;7.85;3.47;;;18.70;63.70;;;;;;7841785;28;20197;-47
2022/03/10 04:39:50;;;;;;;8.05;3.78;;;18.70;63.70;;;;;;7839165;28;20236;-47
2022/03/10 04:43:36;;;;;;;4.53;3.08;;;18.70;63.80;;;;;;7838860;28;20688;-49
2022/03/10 04:47:21;;;;;;;5.50;3.50;;;18.70;63.90;;;;;;7838697;28;20174;-48
2022/03/10 04:51:07;;;;;;;14.10;3.38;;;18.70;63.90;;;;;;7838299;28;20636;-47
2022/03/10 04:54:53;;;;;;;11.95;3.55;;;18.70;64.00;;;;;;7838507;28;20184;-46
2022/03/10 04:58:39;;;;;;;9.70;3.90;;;18.60;63.80;;;;;;7855924;28;20192;-48
2022/03/10 05:02:24;;;;;;;7.97;3.63;;;18.60;63.80;;;;;;7869006;28;20255;-46
2022/03/10 05:06:10;;;;;;;7.40;3.15;;;18.60;64.00;;;;;;7848247;28;20285;-49
2022/03/10 05:09:55;;;;;;;7.15;3.63;;;18.60;64.00;;;;;;7837198;28;20281;-46
2022/03/10 05:13:41;;;;;;;5.75;3.40;;;18.60;63.90;;;;;;7838242;28;20721;-46
2022/03/10 05:17:26;;;;;;;8.00;3.20;;;18.60;64.10;;;;;;7838252;28;20606;-46
2022/03/10 05:21:12;;;;;;;7.68;3.42;;;18.50;64.10;;;;;;7837885;28;20193;-46
2022/03/10 05:24:57;;;;;;;10.13;3.85;;;18.50;64.20;;;;;;7838363;28;20186;-47
2022/03/10 05:28:43;;;;;;;5.18;3.40;;;18.50;64.00;;;;;;7837975;28;20174;-47
2022/03/10 05:32:28;;;;;;;6.63;3.30;;;18.50;64.20;;;;;;7837540;28;20202;-48
2022/03/10 05:36:14;;;;;;;11.02;3.40;;;18.50;64.20;;;;;;7838001;28;20195;-47
2022/03/10 05:40:00;;;;;;;6.53;3.70;;;18.50;64.20;;;;;;7837945;28;20531;-51
2022/03/10 05:43:45;;;;;;;7.13;3.20;;;18.40;64.20;;;;;;7838229;28;20208;-48
2022/03/10 05:47:31;;;;;;;8.13;3.50;;;18.50;64.00;;;;;;7837953;28;20677;-50
2022/03/10 05:51:16;;;;;;;21.15;4.78;;;18.40;64.10;;;;;;7859319;28;20236;-46
2022/03/10 05:55:03;;;;;;;9.43;4.05;;;18.50;64.50;;;;;;7867809;28;20541;-47
2022/03/10 05:58:49;;;;;;;7.38;3.97;;;18.50;64.50;;;;;;7868302;28;20714;-47
2022/03/10 06:02:34;;;;;;;18.58;4.22;;;18.40;64.50;;;;;;7846696;28;20590;-46
2022/03/10 06:06:20;;;;;;;14.40;4.30;;;18.50;65.10;;;;;;7837047;28;20311;-46
2022/03/10 06:10:06;;;;;;;13.30;4.30;;;18.60;65.00;;;;;;7836929;28;20585;-49
2022/03/10 06:13:52;;;;;;;17.73;4.82;;;18.60;65.00;;;;;;7836896;28;20781;-46
2022/03/10 06:17:38;;;;;;;9.30;4.57;;;18.60;64.90;;;;;;7837223;28;20186;-47
2022/03/10 06:21:23;;;;;;;7.82;4.50;;;18.70;65.00;;;;;;7837248;28;20202;-47
2022/03/10 06:25:09;;;;;;;11.50;4.88;;;18.60;64.90;;;;;;7842837;28;20179;-47
2022/03/10 06:28:55;;;;;;;9.30;4.85;;;18.60;65.00;;;;;;7842591;28;20189;-47
2022/03/10 06:32:41;;;;;;;8.23;4.95;;;18.60;65.00;;;;;;7842299;28;20235;-47
2022/03/10 06:36:27;;;;;;;8.00;4.60;;;18.60;64.90;;;;;;7842585;28;20726;-47
2022/03/10 06:40:12;;;;;;;9.00;5.15;;;18.50;64.50;;;;;;7863515;28;20185;-47
2022/03/10 06:43:58;;;;;;;13.63;4.90;;;18.40;64.20;;;;;;7873312;28;20270;-47
2022/03/10 06:47:43;;;;;;;16.63;4.85;;;18.40;64.30;;;;;;7873309;28;20169;-46
2022/03/10 06:51:29;;;;;;;16.75;4.85;;;18.30;64.50;;;;;;7872765;28;20706;-47
2022/03/10 06:55:14;;;;;;;12.38;5.18;;;18.30;64.60;;;;;;7872907;28;20189;-46
2022/03/10 06:59:00;;;;;;;13.50;5.07;;;18.40;65.10;;;;;;7870459;28;20729;-46
2022/03/10 07:02:46;;;;;;;16.25;6.05;;;18.50;65.40;;;;;;7841239;28;20225;-46
2022/03/10 07:06:32;;;;;;;11.52;5.57;;;18.50;65.30;;;;;;7841558;28;20174;-45
2022/03/10 07:10:17;;;;;;;10.02;6.00;;;18.50;66.20;;;;;;7841351;28;20183;-46
2022/03/10 07:14:03;;;;;;;10.65;5.82;;;18.50;65.30;;;;;;7851093;28;20569;-46
2022/03/10 07:17:49;;;;;;;10.27;6.28;;;18.50;65.30;;;;;;7841416;28;20182;-46
2022/03/10 07:21:37;;;;;;;10.98;6.25;;;18.50;65.30;;;;;;7858321;28;20201;-45
2022/03/10 07:25:23;;;;;;;11.20;6.78;;;18.50;65.30;;;;;;7843641;28;20182;-46
2022/03/10 07:29:09;;;;;;;11.90;6.38;;;18.50;65.40;;;;;;7863072;28;20192;-45
2022/03/10 07:32:54;;;;;;;19.98;6.22;;;18.50;65.40;;;;;;7871542;28;20699;-47
2022/03/10 07:36:42;;;;;;;15.48;6.38;;;18.40;65.00;;;;;;7872157;28;20193;-47
2022/03/10 07:40:28;;;;;;;16.23;6.75;;;18.40;65.40;;;;;;7872217;28;20176;-47
2022/03/10 07:44:13;;;;;;;15.05;7.15;;;18.40;65.60;;;;;;7871732;28;20201;-48
2022/03/10 07:47:59;;;;;;;12.52;5.80;;;18.40;65.50;;;;;;7871918;28;20268;-46
2022/03/10 07:51:44;;;;;;;12.68;6.20;;;18.50;65.70;;;;;;7868882;28;20209;-47
2022/03/10 07:55:30;;;;;;;11.18;6.68;;;18.40;65.80;;;;;;7871032;28;20185;-46
2022/03/10 07:59:15;;;;;;;12.55;6.35;;;18.40;66.00;;;;;;7871027;28;20661;-46
2022/03/10 08:03:01;;;;;;;11.57;6.80;;;18.30;65.90;;;;;;7856231;28;20226;-48
2022/03/10 08:06:47;;;;;;;11.75;6.80;;;18.40;65.80;;;;;;7838537;28;20655;-47
2022/03/10 08:10:32;;;;;;;10.50;6.00;;;18.40;65.60;;;;;;7839642;28;20340;-47
2022/03/10 08:14:18;;;;;;;12.60;6.15;;;18.40;65.50;;;;;;7839873;28;20249;-47
2022/03/10 08:18:03;;;;;;;16.17;6.10;;;18.40;65.90;;;;;;7839728;28;20536;-48
2022/03/10 08:21:49;;;;;;;11.63;5.88;;;18.40;66.10;;;;;;7839290;28;20197;-46
2022/03/10 08:25:36;;;;;;;11.45;6.00;;;18.40;66.40;;;;;;7856959;28;20208;-46
2022/03/10 08:29:23;;;;;;;14.52;5.90;;;18.40;66.50;;;;;;7870021;28;20191;-46
2022/03/10 08:33:08;;;;;;;9.65;6.22;;;18.40;66.50;;;;;;7867184;28;20258;-46
2022/03/10 08:36:54;;;;;;;10.40;6.40;;;18.30;66.50;;;;;;7839255;28;20186;-47
2022/03/10 08:40:39;;;;;;;9.55;5.78;;;18.30;66.50;;;;;;7838781;28;20201;-46
2022/03/10 08:44:25;;;;;;;10.85;5.70;;;18.40;66.50;;;;;;7838545;28;20198;-47
2022/03/10 08:48:11;;;;;;;10.32;5.82;;;18.30;66.60;;;;;;7838931;28;20249;-45
2022/03/10 08:51:56;;;;;;;15.82;5.45;;;18.30;66.80;;;;;;7838379;28;20213;-45
2022/03/10 08:55:42;;;;;;;11.00;5.82;;;18.30;66.60;;;;;;7838810;28;20185;-47
2022/03/10 08:59:27;;;;;;;11.20;5.72;;;18.40;66.80;;;;;;7837877;28;20185;-47
2022/03/10 09:03:13;;;;;;;9.77;5.38;;;18.40;66.60;;;;;;7838369;28;20296;-47
2022/03/10 09:06:59;;;;;;;11.27;5.97;;;18.30;66.00;;;;;;7838428;28;20193;-47
2022/03/10 09:10:45;;;;;;;8.75;5.10;;;18.30;65.70;;;;;;7837582;28;20262;-47
2022/03/10 09:14:31;;;;;;;14.68;6.15;;;18.30;65.30;;;;;;7838281;28;20186;-46
2022/03/10 09:18:16;;;;;;;12.35;5.53;;;18.30;65.80;;;;;;7838185;28;20311;-47
2022/03/10 09:22:02;;;;;;;11.15;5.72;;;18.40;65.90;;;;;;7837920;28;20239;-46
2022/03/10 09:25:47;;;;;;;11.30;5.75;;;18.30;65.30;;;;;;7838619;28;20182;-47
2022/03/10 09:29:33;;;;;;;17.15;5.05;;;18.30;65.10;;;;;;7838248;28;20232;-46
2022/03/10 09:33:18;;;;;;;9.35;5.22;;;18.20;65.00;;;;;;7838115;28;20221;-48
2022/03/10 09:37:06;;;;;;;11.30;5.00;;;18.20;64.90;;;;;;7838062;28;20178;-48
2022/03/10 09:40:54;;;;;;;10.85;5.07;;;18.30;65.40;;;;;;7855065;28;20177;-47
2022/03/10 09:44:42;;;;;;;10.52;4.85;;;18.30;65.40;;;;;;7866655;28;20243;-47
2022/03/10 09:48:28;;;;;;;9.82;5.03;;;18.40;65.70;;;;;;7850570;28;20177;-47
2022/03/10 09:52:14;;;;;;;8.43;4.90;;;18.40;65.70;;;;;;7837701;28;20214;-48
2022/03/10 09:56:00;;;;;;;9.68;4.97;;;18.40;65.70;;;;;;7842048;28;20533;-47
2022/03/10 09:59:58;;;;;;;10.95;5.50;;;18.40;65.40;;;;;;7874078;28;20319;-49
2022/03/10 10:03:44;;;;;;;6.78;4.53;;;18.40;65.80;;;;;;7874517;28;20236;-46
2022/03/10 10:07:30;;;;;;;8.18;4.70;;;18.40;66.00;;;;;;7874509;28;20186;-47
2022/03/10 10:11:15;;;;;;;13.90;4.40;;;18.40;66.00;;;;;;7873906;28;20209;-47
2022/03/10 10:15:09;;;;;;;10.55;4.50;;;18.50;66.00;;;;;;7874193;28;20184;-46
2022/03/10 10:18:58;;;;;;;12.45;4.65;;;18.50;66.20;;;;;;7874264;28;20214;-46
2022/03/10 10:22:45;;;;;;;9.80;4.80;;;18.50;66.40;;;;;;7873691;28;20689;-48
2022/03/10 10:26:31;;;;;;;15.70;4.68;;;18.60;66.40;;;;;;7873798;28;20177;-46
2022/03/10 10:30:17;;;;;;;14.00;4.70;;;18.50;66.50;;;;;;7873491;28;20599;-47
2022/03/10 10:34:11;;;;;;;8.85;4.50;;;18.50;66.50;;;;;;7873733;28;20209;-46
2022/03/10 10:37:58;;;;;;;15.20;4.43;;;18.50;66.50;;;;;;7858804;28;20178;-46
2022/03/10 10:41:45;;;;;;;11.77;5.55;;;18.50;66.50;;;;;;7873088;28;20205;-47
2022/03/10 10:45:34;;;;;;;9.88;4.35;;;18.60;66.40;;;;;;7873336;28;20888;-47
2022/03/10 10:49:22;;;;;;;7.65;3.90;;;18.60;66.40;;;;;;7872873;28;20238;-46
2022/03/10 10:53:08;;;;;;;10.63;4.35;;;18.60;66.40;;;;;;7873148;28;20219;-46
2022/03/10 10:57:02;;;;;;;8.50;4.45;;;18.60;66.30;;;;;;7873088;28;20256;-47
2022/03/10 11:00:49;;;;;;;8.05;4.18;;;18.60;66.30;;;;;;7873028;28;20252;-45
2022/03/10 11:04:35;;;;;;;7.50;4.03;;;18.60;66.10;;;;;;7872668;28;20223;-47
2022/03/10 11:08:23;;;;;;;10.10;4.43;;;18.60;65.60;;;;;;7872698;28;20186;-47
2022/03/10 11:12:10;;;;;;;11.32;4.13;;;18.60;65.10;;;;;;7872461;28;20292;-46
2022/03/10 11:15:57;;;;;;;8.30;4.53;;;18.50;65.10;;;;;;7872588;28;20173;-47
2022/03/10 11:19:47;;;;;;;7.70;4.63;;;18.40;64.80;;;;;;7863454;28;20186;-47
2022/03/10 11:23:48;;;;;;;8.55;4.60;;;18.50;64.70;;;;;;7872611;28;20248;-46
2022/03/10 11:27:39;;;;;;;9.65;4.38;;;18.50;64.50;;;;;;7861878;28;20204;-47
2022/03/10 11:31:26;;;;;;;9.68;4.80;;;18.40;64.40;;;;;;7843814;28;20213;-48
2022/03/10 11:35:16;;;;;;;11.75;4.13;;;18.40;63.70;;;;;;7872082;28;20580;-47
2022/03/10 11:39:07;;;;;;;14.15;4.38;;;18.40;64.40;;;;;;7872011;28;20177;-47
2022/03/10 11:43:00;;;;;;;8.50;4.47;;;18.40;64.40;;;;;;7871659;28;20201;-48
2022/03/10 11:46:57;;;;;;;10.27;4.43;;;18.40;64.10;;;;;;7869625;28;20212;-47
2022/03/10 11:50:42;;;;;;;13.20;4.35;;;18.40;64.10;;;;;;7860956;28;20186;-49
2022/03/10 11:54:32;;;;;;;7.78;3.97;;;18.30;63.70;;;;;;7846892;28;20209;-48
2022/03/10 11:58:34;;;;;;;6.53;4.10;;;18.30;63.90;;;;;;7854595;28;20190;-48
2022/03/10 12:02:41;;;;;;;7.88;4.10;;;18.30;63.70;;;;;;7839690;28;20209;-48
2022/03/10 12:06:30;;;;;;;7.53;4.00;;;18.30;63.70;;;;;;7865660;28;20215;-46
2022/03/10 12:10:15;;;;;;;12.80;4.32;;;18.30;62.70;;;;;;7839052;28;20198;-48
2022/03/10 12:14:25;;;;;;;9.82;4.22;;;18.30;63.20;;;;;;7883974;28;20666;-46
2022/03/10 12:18:19;;;;;;;11.57;4.55;;;18.30;64.00;;;;;;7873118;28;20318;-48
2022/03/10 12:22:08;;;;;;;11.38;3.60;;;18.30;64.30;;;;;;7883657;28;20197;-46
2022/03/10 12:26:06;;;;;;;6.43;3.67;;;18.30;64.40;;;;;;7870694;28;20181;-47
2022/03/10 12:29:56;;;;;;;11.68;4.10;;;18.50;65.10;;;;;;7869640;28;20720;-47
2022/03/10 12:33:51;;;;;;;10.60;4.30;;;18.60;65.20;;;;;;7870026;28;20298;-46
2022/03/10 12:37:37;;;;;;;13.35;4.35;;;18.60;65.30;;;;;;7870165;28;20189;-46
2022/03/10 12:41:40;;;;;;;13.32;4.50;;;18.60;65.20;;;;;;7860177;28;20879;-47
2022/03/10 12:45:26;;;;;;;7.85;4.28;;;18.70;65.40;;;;;;7838775;28;20193;-48
2022/03/10 12:49:28;;;;;;;9.57;4.55;;;18.70;65.30;;;;;;7838619;28;20255;-46
2022/03/10 12:53:15;;;;;;;5.95;3.92;;;18.60;65.50;;;;;;7838533;28;20201;-46
2022/03/10 12:57:05;;;;;;;7.80;4.32;;;18.70;65.60;;;;;;7838441;28;20210;-46
2022/03/10 13:00:51;;;;;;;11.52;4.05;;;18.70;65.70;;;;;;7838280;28;20197;-47
2022/03/10 13:04:45;;;;;;;7.90;4.32;;;18.70;65.50;;;;;;7838249;28;20216;-46
2022/03/10 13:08:30;;;;;;;8.80;4.80;;;18.80;65.40;;;;;;7838130;28;20535;-47
2022/03/10 13:12:24;;;;;;;7.20;4.72;;;18.70;65.40;;;;;;7837998;28;20215;-47
2022/03/10 13:16:09;;;;;;;8.88;4.50;;;18.70;65.40;;;;;;7838201;28;20190;-46
2022/03/10 13:19:54;;;;;;;11.07;5.13;;;18.70;65.10;;;;;;7837329;28;20186;-46
2022/03/10 13:23:40;;;;;;;8.77;5.25;;;18.70;65.20;;;;;;7838144;28;20197;-48
2022/03/10 13:27:27;;;;;;;8.88;4.68;;;18.70;65.50;;;;;;7838445;28;20173;-47
2022/03/10 13:31:13;;;;;;;8.02;4.82;;;18.70;65.50;;;;;;7837056;28;20269;-46
2022/03/10 13:35:05;;;;;;;8.30;5.32;;;18.70;65.50;;;;;;7837894;28;20182;-47
2022/03/10 13:38:51;;;;;;;12.65;5.88;;;18.70;65.50;;;;;;7837914;28;20524;-48
2022/03/10 13:42:37;;;;;;;9.75;5.00;;;18.70;65.70;;;;;;7837519;28;20194;-46
2022/03/10 13:46:23;;;;;;;8.05;5.07;;;18.80;65.80;;;;;;7835614;28;20197;-47
2022/03/10 13:50:10;;;;;;;13.73;5.72;;;18.70;65.50;;;;;;7837091;28;20170;-46
2022/03/10 13:54:01;;;;;;;10.63;5.45;;;18.80;65.60;;;;;;7837540;28;20210;-47
2022/03/10 13:57:47;;;;;;;11.43;6.60;;;18.70;65.40;;;;;;7837986;28;20265;-47
2022/03/10 14:01:38;;;;;;;9.32;5.47;;;18.80;65.60;;;;;;7837299;28;20224;-48
2022/03/10 14:05:24;;;;;;;11.00;5.45;;;18.80;65.30;;;;;;7837458;28;20182;-47
2022/03/10 14:09:24;;;;;;;9.75;6.13;;;18.80;65.00;;;;;;7837197;28;20174;-48
2022/03/10 14:13:11;;;;;;;14.18;7.03;;;18.70;64.30;;;;;;7837304;28;20209;-46
2022/03/10 14:16:56;;;;;;;11.38;6.07;;;18.70;63.30;;;;;;7837371;28;20709;-49
2022/03/10 14:20:42;;;;;;;11.32;6.05;;;18.70;63.50;;;;;;7838260;28;20758;-47
2022/03/10 14:24:35;;;;;;;12.35;6.00;;;18.70;63.50;;;;;;7836991;28;20206;-47
2022/03/10 14:28:31;;;;;;;9.13;5.53;;;18.60;63.60;;;;;;7837218;28;20735;-48
2022/03/10 14:32:16;;;;;;;10.88;5.50;;;18.60;64.20;;;;;;7836856;28;20217;-47
2022/03/10 14:36:06;;;;;;;9.45;5.75;;;18.60;64.70;;;;;;7836929;28;20173;-47
2022/03/10 14:39:52;;;;;;;10.75;5.43;;;18.60;64.90;;;;;;7860656;28;20646;-47
2022/03/10 14:43:37;;;;;;;11.50;6.05;;;18.70;65.00;;;;;;7870257;28;20665;-46
2022/03/10 14:47:23;;;;;;;10.68;6.65;;;18.70;66.10;;;;;;7873146;28;20184;-46
2022/03/10 14:51:10;;;;;;;9.20;6.18;;;18.70;65.20;;;;;;7872712;28;20200;-47
2022/03/10 14:54:55;;;;;;;9.73;6.50;;;18.60;65.00;;;;;;7873167;28;20190;-47
2022/03/10 14:58:45;;;;;;;11.07;6.00;;;18.60;65.10;;;;;;7872940;28;20176;-47
2022/03/10 15:02:31;;;;;;;10.60;6.10;;;18.60;65.20;;;;;;7872221;28;20267;-47
2022/03/10 15:06:16;;;;;;;10.82;5.57;;;18.60;65.00;;;;;;7873060;28;20231;-46
2022/03/10 15:10:17;;;;;;;8.20;5.35;;;18.60;65.20;;;;;;7872505;28;20209;-46
2022/03/10 15:14:03;;;;;;;12.75;6.25;;;18.60;65.40;;;;;;7872339;28;20213;-46
2022/03/10 15:17:48;;;;;;;10.05;6.18;;;18.60;65.40;;;;;;7872542;28;20181;-47
2022/03/10 15:21:34;;;;;;;7.65;5.40;;;18.60;65.50;;;;;;7872097;28;20240;-47
2022/03/10 15:25:19;;;;;;;9.25;5.95;;;18.60;65.50;;;;;;7872196;28;20206;-47
2022/03/10 15:29:06;;;;;;;7.85;5.47;;;18.60;65.60;;;;;;7872084;28;20257;-48
2022/03/10 15:32:51;;;;;;;8.93;6.00;;;18.60;65.50;;;;;;7871918;28;20216;-46
2022/03/10 15:36:37;;;;;;;7.68;5.60;;;18.50;65.60;;;;;;7871923;28;20174;-46
2022/03/10 15:40:23;;;;;;;9.00;5.35;;;18.60;65.80;;;;;;7871489;28;20657;-47
2022/03/10 15:44:09;;;;;;;8.25;5.72;;;18.50;65.70;;;;;;7871792;28;20230;-46
2022/03/10 15:47:55;;;;;;;10.50;5.47;;;18.50;65.80;;;;;;7868957;28;20828;-47
2022/03/10 15:51:41;;;;;;;10.40;5.47;;;18.50;65.90;;;;;;7871049;28;20209;-47
2022/03/10 15:55:31;;;;;;;9.95;6.30;;;18.40;65.30;;;;;;7870674;28;20716;-47
2022/03/10 15:59:16;;;;;;;10.75;5.90;;;18.40;64.80;;;;;;7871415;28;20180;-47
2022/03/10 16:03:02;;;;;;;11.43;5.75;;;18.50;64.70;;;;;;7870945;28;20221;-49
2022/03/10 16:06:47;;;;;;;9.70;6.38;;;18.30;64.50;;;;;;7871437;28;20184;-47
2022/03/10 16:10:33;;;;;;;10.45;5.55;;;18.30;64.40;;;;;;7870778;28;20212;-47
2022/03/10 16:14:18;;;;;;;11.70;5.47;;;18.30;64.20;;;;;;7848004;28;20236;-48
2022/03/10 16:18:07;;;;;;;10.13;5.72;;;18.20;64.00;;;;;;7839813;28;20174;-49
2022/03/10 16:21:52;;;;;;;10.38;5.70;;;18.20;63.70;;;;;;7839368;28;20206;-47
2022/03/10 16:25:37;;;;;;;11.00;5.45;;;18.20;63.70;;;;;;7839780;28;20193;-46
2022/03/10 16:29:24;;;;;;;7.55;5.85;;;18.10;63.50;;;;;;7839414;28;20178;-47
2022/03/10 16:33:09;;;;;;;8.23;5.97;;;18.10;63.40;;;;;;7839547;28;20278;-46
2022/03/10 16:36:55;;;;;;;10.00;5.90;;;18.10;63.30;;;;;;7839524;28;20174;-47
2022/03/10 16:40:41;;;;;;;9.75;5.80;;;18.10;63.30;;;;;;7839241;28;20174;-48
2022/03/10 16:44:26;;;;;;;8.82;5.95;;;18.00;63.30;;;;;;7839155;28;20206;-47
2022/03/10 16:48:12;;;;;;;9.93;5.72;;;18.00;63.20;;;;;;7838915;28;20197;-47
2022/03/10 16:51:57;;;;;;;8.05;5.75;;;18.00;63.10;;;;;;7838530;28;20205;-47
2022/03/10 16:55:45;;;;;;;7.75;5.50;;;18.00;63.00;;;;;;7838786;28;20185;-47
2022/03/10 16:59:32;;;;;;;10.65;5.63;;;17.90;63.00;;;;;;7838561;28;20170;-47
2022/03/10 17:03:17;;;;;;;8.75;5.68;;;17.90;62.80;;;;;;7838259;28;20300;-48
2022/03/10 17:07:03;;;;;;;7.10;5.32;;;17.80;62.70;;;;;;7838617;28;20194;-47
2022/03/10 17:10:52;;;;;;;9.00;5.55;;;17.80;63.40;;;;;;7836337;28;20236;-47
2022/03/10 17:14:38;;;;;;;7.63;5.78;;;17.80;62.60;;;;;;7838013;28;20210;-47
2022/03/10 17:18:25;;;;;;;8.05;5.45;;;17.80;62.30;;;;;;7838292;28;20174;-47
2022/03/10 17:22:10;;;;;;;23.45;6.53;;;17.80;62.60;;;;;;7837844;28;20293;-47
2022/03/10 17:25:56;;;;;;;7.80;5.90;;;17.80;62.20;;;;;;7838208;28;20170;-48
2022/03/10 17:29:42;;;;;;;10.82;6.63;;;17.90;61.50;;;;;;7837819;28;20174;-47
2022/03/10 17:33:28;;;;;;;12.85;6.38;;;17.90;61.30;;;;;;7836995;28;20285;-46
2022/03/10 17:37:13;;;;;;;8.75;6.10;;;17.90;61.40;;;;;;7865291;28;20192;-47
2022/03/10 17:40:59;;;;;;;15.23;6.22;;;17.90;61.50;;;;;;7867608;28;20662;-47
2022/03/10 17:44:44;;;;;;;8.38;5.88;;;17.90;61.70;;;;;;7859611;28;20205;-47
2022/03/10 17:48:30;;;;;;;12.95;6.65;;;17.90;61.50;;;;;;7850770;28;20257;-48
2022/03/10 17:52:16;;;;;;;13.52;5.95;;;17.90;61.20;;;;;;7849941;28;20236;-48
2022/03/10 17:56:01;;;;;;;13.10;6.35;;;17.90;62.00;;;;;;7852633;28;20174;-46
2022/03/10 17:59:47;;;;;;;12.13;5.50;;;18.00;62.20;;;;;;7839650;28;20192;-49
2022/03/10 18:03:32;;;;;;;20.42;5.65;;;18.00;62.10;;;;;;7837368;28;20578;-47
2022/03/10 18:07:18;;;;;;;20.80;6.82;;;18.10;63.10;;;;;;7846487;28;20204;-46
2022/03/10 18:11:03;;;;;;;13.07;5.78;;;18.10;62.10;;;;;;7868195;28;20177;-46
2022/03/10 18:14:49;;;;;;;17.10;6.05;;;18.20;62.70;;;;;;7868453;28;20553;-47
2022/03/10 18:18:35;;;;;;;16.35;5.72;;;18.20;62.20;;;;;;7870436;28;20334;-46
2022/03/10 18:22:20;;;;;;;15.50;5.22;;;18.40;62.90;;;;;;7845591;28;20204;-48
2022/03/10 18:26:07;;;;;;;13.50;5.13;;;18.60;63.80;;;;;;7845674;28;20264;-47
2022/03/10 18:29:52;;;;;;;15.60;6.53;;;18.70;63.90;;;;;;7842380;28;20557;-46
2022/03/10 18:33:38;;;;;;;15.95;5.10;;;18.90;63.60;;;;;;7842797;28;20213;-46
2022/03/10 18:37:23;;;;;;;18.02;5.03;;;19.10;63.60;;;;;;7842690;28;20236;-46
2022/03/10 18:41:09;;;;;;;14.70;5.18;;;19.30;63.70;;;;;;7841980;28;20197;-46
2022/03/10 18:44:55;;;;;;;20.08;5.88;;;19.50;63.20;;;;;;7852909;28;20213;-48
2022/03/10 18:48:40;;;;;;;21.13;5.40;;;19.70;63.20;;;;;;7861376;28;20175;-46
2022/03/10 18:52:26;;;;;;;15.30;5.18;;;20.00;63.20;;;;;;7857155;28;20263;-48
2022/03/10 18:56:11;;;;;;;14.35;4.80;;;20.20;63.10;;;;;;7854631;28;20670;-46
2022/03/10 18:59:57;;;;;;;13.20;4.72;;;20.30;62.90;;;;;;7854046;28;20235;-47
2022/03/10 19:03:43;;;;;;;20.00;5.32;;;20.50;62.70;;;;;;7854866;28;20734;-46
2022/03/10 19:07:28;;;;;;;11.13;4.78;;;20.70;62.80;;;;;;7855448;28;20196;-47
2022/03/10 19:11:14;;;;;;;11.98;4.95;;;20.80;62.50;;;;;;7854743;28;20177;-46
2022/03/10 19:14:59;;;;;;;11.43;4.90;;;20.90;62.40;;;;;;7856513;28;20239;-46
2022/03/10 19:18:45;;;;;;;14.32;5.00;;;21.00;62.20;;;;;;7855531;28;20196;-45
2022/03/10 19:22:30;;;;;;;13.20;4.53;;;21.10;62.00;;;;;;7855132;28;20210;-47
2022/03/10 19:26:16;;;;;;;9.52;5.47;;;21.20;62.20;;;;;;7855139;28;20184;-46
2022/03/10 19:30:02;;;;;;;11.02;4.75;;;21.20;60.80;;;;;;7853321;28;20186;-48
2022/03/10 19:33:47;;;;;;;8.45;5.07;;;21.30;61.90;;;;;;7856685;28;20583;-49
2022/03/10 19:37:32;;;;;;;9.88;5.70;;;21.30;60.30;;;;;;7863366;28;20710;-46
2022/03/10 19:41:18;;;;;;;14.93;5.75;;;21.30;59.90;;;;;;7845489;28;20198;-47